Time;durP1;ratioP1;P1;durP2;ratioP2;P2;SDS_P1;SDS_P2;PMS_P1;PMS_P2;Temp;Humidity;BMP_temperature;BMP_pressure;BME280_temperature;BME280_humidity;BME280_pressure;Samples;Min_cycle;Max_cycle;Signal;HPM_P1;HPM_P2
2021/12/16 00:01:46;;;;;;;18.20;10.50;;;;;;;;;;5088390;28;20434;-73
2021/12/16 00:09:58;;;;;;;16.20;9.43;;;;;;;;;;5067887;28;20429;-73
2021/12/16 00:29:22;;;;;;;14.10;8.33;;;;;;;;;;5080708;28;20931;-73
2021/12/16 00:31:57;;;;;;;11.70;7.97;;;;;;;;;;5091094;28;20452;-73
2021/12/16 00:34:25;;;;;;;13.40;9.20;;;;;;;;;;5091390;28;20479;-72
2021/12/16 00:36:53;;;;;;;13.77;9.90;;;;;;;;;;5083801;28;20818;-73
2021/12/16 00:39:23;;;;;;;13.60;9.17;;;;;;;;;;5090966;28;20451;-72
2021/12/16 00:41:56;;;;;;;14.57;9.70;;;;;;;;;;5081112;28;20446;-72
2021/12/16 00:44:48;;;;;;;15.63;9.73;;;;;;;;;;5082672;28;20852;-72
2021/12/16 00:47:27;;;;;;;13.07;10.67;;;;;;;;;;5090571;28;20474;-72
2021/12/16 00:50:04;;;;;;;14.13;9.63;;;;;;;;;;5080206;28;20814;-73
2021/12/16 00:55:29;;;;;;;13.47;9.20;;;;;;;;;;5090295;28;20567;-72
2021/12/16 00:57:57;;;;;;;12.57;9.70;;;;;;;;;;5079434;28;20810;-69
2021/12/16 01:00:26;;;;;;;15.47;9.70;;;;;;;;;;5091145;28;20445;-72
2021/12/16 01:03:03;;;;;;;13.50;9.80;;;;;;;;;;5090285;28;20463;-72
2021/12/16 01:36:22;;;;;;;15.73;10.10;;;;;;;;;;4992614;28;20460;-72
2021/12/16 01:47:24;;;;;;;17.37;11.30;;;;;;;;;;5094207;28;20927;-72
2021/12/16 01:49:59;;;;;;;14.33;10.57;;;;;;;;;;5094867;28;20451;-73
2021/12/16 01:55:18;;;;;;;16.80;11.40;;;;;;;;;;5069079;28;20477;-72
2021/12/16 01:57:49;;;;;;;15.10;10.10;;;;;;;;;;5077819;28;20453;-72
2021/12/16 02:00:26;;;;;;;21.20;11.80;;;;;;;;;;5086774;28;20820;-72
2021/12/16 02:02:59;;;;;;;16.87;10.93;;;;;;;;;;5094589;28;20513;-72
2021/12/16 02:05:36;;;;;;;17.27;10.83;;;;;;;;;;5089731;28;20448;-71
2021/12/16 02:08:19;;;;;;;14.13;9.57;;;;;;;;;;5093978;28;20444;-72
2021/12/16 02:10:56;;;;;;;17.90;10.40;;;;;;;;;;5081518;28;20606;-72
2021/12/16 02:13:47;;;;;;;17.07;11.80;;;;;;;;;;5086426;28;20472;-72
2021/12/16 02:27:30;;;;;;;14.87;9.57;;;;;;;;;;5093528;28;20459;-72
2021/12/16 02:30:35;;;;;;;15.13;10.10;;;;;;;;;;5081858;28;21026;-72
2021/12/16 02:33:10;;;;;;;15.90;10.70;;;;;;;;;;5093643;28;20440;-72
2021/12/16 02:35:44;;;;;;;16.40;9.63;;;;;;;;;;5086023;28;20437;-72
2021/12/16 02:38:15;;;;;;;13.70;9.67;;;;;;;;;;5093578;28;20445;-72
2021/12/16 02:40:42;;;;;;;17.53;10.70;;;;;;;;;;5089198;28;20978;-72
2021/12/16 02:43:25;;;;;;;17.90;10.40;;;;;;;;;;5093010;28;20453;-72
2021/12/16 02:48:40;;;;;;;15.83;10.20;;;;;;;;;;5093739;28;20533;-72
2021/12/16 02:51:08;;;;;;;12.97;9.07;;;;;;;;;;5092736;28;20476;-72
2021/12/16 02:53:39;;;;;;;15.23;9.43;;;;;;;;;;5092442;28;20563;-72
2021/12/16 02:56:07;;;;;;;15.83;10.80;;;;;;;;;;5093134;28;20436;-72
2021/12/16 02:58:35;;;;;;;15.17;9.10;;;;;;;;;;5081385;28;20452;-72
2021/12/16 03:01:05;;;;;;;16.10;10.70;;;;;;;;;;5073288;28;20446;-72
2021/12/16 03:03:34;;;;;;;16.27;10.30;;;;;;;;;;5087603;28;20540;-73
2021/12/16 03:06:02;;;;;;;16.80;9.57;;;;;;;;;;5091321;28;20510;-73
2021/12/16 03:08:31;;;;;;;17.67;9.80;;;;;;;;;;5093266;28;20464;-72
2021/12/16 03:11:17;;;;;;;16.00;10.83;;;;;;;;;;5092754;28;20527;-72
2021/12/16 03:14:00;;;;;;;15.70;10.60;;;;;;;;;;5093061;28;20508;-72
2021/12/16 03:16:36;;;;;;;17.30;10.30;;;;;;;;;;5093081;28;20448;-71
2021/12/16 03:19:13;;;;;;;18.77;10.60;;;;;;;;;;5092926;28;20809;-73
2021/12/16 03:21:44;;;;;;;15.63;10.10;;;;;;;;;;5084786;28;20539;-72
2021/12/16 03:24:36;;;;;;;14.17;9.90;;;;;;;;;;5092638;28;20453;-73
2021/12/16 03:36:03;;;;;;;15.33;9.17;;;;;;;;;;5099381;28;20963;-73
2021/12/16 03:38:31;;;;;;;14.70;9.77;;;;;;;;;;5097292;28;20821;-73
2021/12/16 03:40:58;;;;;;;16.33;10.80;;;;;;;;;;5107181;28;20448;-73
2021/12/16 03:43:26;;;;;;;15.37;9.90;;;;;;;;;;5108633;28;20470;-73
2021/12/16 03:48:44;;;;;;;12.30;8.60;;;;;;;;;;5108778;28;20973;-73
2021/12/16 03:51:14;;;;;;;14.87;9.83;;;;;;;;;;5106810;28;20466;-73
2021/12/16 03:53:43;;;;;;;13.67;9.70;;;;;;;;;;5108191;28;20783;-74
2021/12/16 03:56:11;;;;;;;14.40;9.40;;;;;;;;;;5102377;28;20550;-73
2021/12/16 03:58:38;;;;;;;15.90;9.77;;;;;;;;;;5108653;28;20440;-73
2021/12/16 04:01:07;;;;;;;15.07;9.63;;;;;;;;;;5105485;28;20812;-73
2021/12/16 04:03:35;;;;;;;15.20;9.17;;;;;;;;;;5108031;28;20436;-73
2021/12/16 04:06:04;;;;;;;18.27;11.00;;;;;;;;;;5107084;28;20450;-73
2021/12/16 04:08:31;;;;;;;19.17;10.70;;;;;;;;;;5107914;28;20440;-73
2021/12/16 04:11:05;;;;;;;16.53;9.80;;;;;;;;;;5107188;28;20475;-72
2021/12/16 04:13:36;;;;;;;19.00;11.03;;;;;;;;;;5107893;28;20447;-73
2021/12/16 04:16:03;;;;;;;16.33;10.87;;;;;;;;;;5107170;28;20493;-73
2021/12/16 04:18:31;;;;;;;18.33;10.30;;;;;;;;;;5107576;28;20446;-73
2021/12/16 04:20:58;;;;;;;19.10;10.83;;;;;;;;;;5106490;28;20448;-72
2021/12/16 04:23:26;;;;;;;14.77;9.97;;;;;;;;;;5106979;28;20454;-72
2021/12/16 04:25:54;;;;;;;18.07;11.10;;;;;;;;;;5107687;28;20970;-72
2021/12/16 04:28:23;;;;;;;20.23;11.33;;;;;;;;;;5107482;28;20479;-73
2021/12/16 04:30:50;;;;;;;16.63;10.50;;;;;;;;;;5098387;28;20459;-72
2021/12/16 04:33:18;;;;;;;15.47;10.80;;;;;;;;;;5106569;28;20440;-72
2021/12/16 04:35:45;;;;;;;22.00;12.43;;;;;;;;;;5103718;28;20569;-72
2021/12/16 04:38:13;;;;;;;17.57;10.07;;;;;;;;;;5098075;28;20444;-74
2021/12/16 04:40:44;;;;;;;20.37;11.40;;;;;;;;;;5107321;28;20454;-72
2021/12/16 04:43:18;;;;;;;18.40;10.67;;;;;;;;;;5086973;28;20503;-73
2021/12/16 04:45:45;;;;;;;17.03;10.60;;;;;;;;;;5087519;28;20499;-72
2021/12/16 04:48:13;;;;;;;18.27;12.40;;;;;;;;;;5092651;28;20441;-72
2021/12/16 04:50:40;;;;;;;18.20;11.87;;;;;;;;;;5093584;28;20455;-72
2021/12/16 04:53:07;;;;;;;20.07;12.87;;;;;;;;;;5092239;28;20984;-73
2021/12/16 04:55:34;;;;;;;22.30;12.63;;;;;;;;;;5093597;28;20450;-72
2021/12/16 04:58:03;;;;;;;24.53;13.70;;;;;;;;;;5093078;28;20441;-72
2021/12/16 05:00:30;;;;;;;21.57;12.20;;;;;;;;;;5089408;28;20454;-72
2021/12/16 05:02:57;;;;;;;22.33;14.13;;;;;;;;;;5091443;28;20456;-71
2021/12/16 05:05:24;;;;;;;23.70;13.90;;;;;;;;;;5092669;28;20944;-72
2021/12/16 05:07:52;;;;;;;22.00;13.60;;;;;;;;;;5093876;28;20452;-73
2021/12/16 05:10:20;;;;;;;24.07;12.87;;;;;;;;;;5092445;28;20948;-72
2021/12/16 05:12:49;;;;;;;21.73;12.70;;;;;;;;;;5092815;28;20537;-72
2021/12/16 05:15:19;;;;;;;23.73;13.50;;;;;;;;;;5088698;28;20804;-72
2021/12/16 05:17:49;;;;;;;27.53;14.57;;;;;;;;;;5086917;28;20544;-72
2021/12/16 05:20:18;;;;;;;23.40;14.30;;;;;;;;;;5093155;28;20459;-73
2021/12/16 05:28:12;;;;;;;19.60;11.77;;;;;;;;;;5089260;28;20445;-72
2021/12/16 05:30:41;;;;;;;23.40;12.30;;;;;;;;;;5091501;28;20444;-72
2021/12/16 05:33:08;;;;;;;22.83;12.37;;;;;;;;;;5088680;28;20468;-73
2021/12/16 05:35:36;;;;;;;18.60;12.53;;;;;;;;;;5084435;28;20469;-73
2021/12/16 05:38:03;;;;;;;20.60;12.00;;;;;;;;;;5076486;28;20531;-75
2021/12/16 05:40:31;;;;;;;28.40;12.47;;;;;;;;;;5077382;28;20452;-72
2021/12/16 05:42:59;;;;;;;22.50;12.70;;;;;;;;;;5091664;28;20452;-72
2021/12/16 05:45:27;;;;;;;19.67;11.03;;;;;;;;;;5093087;28;20861;-72
2021/12/16 05:47:57;;;;;;;26.70;13.80;;;;;;;;;;5092721;28;20444;-72
2021/12/16 05:50:24;;;;;;;21.20;11.30;;;;;;;;;;5093177;28;20449;-76
2021/12/16 05:52:52;;;;;;;21.70;11.97;;;;;;;;;;5074920;28;20473;-74
2021/12/16 05:55:19;;;;;;;20.07;10.87;;;;;;;;;;5082908;28;20449;-74
2021/12/16 05:57:47;;;;;;;19.53;10.93;;;;;;;;;;5092682;28;20452;-74
2021/12/16 06:00:16;;;;;;;18.97;10.87;;;;;;;;;;5091563;28;20444;-74
2021/12/16 06:02:43;;;;;;;18.40;10.60;;;;;;;;;;5091893;28;20464;-74
2021/12/16 06:05:12;;;;;;;18.90;11.03;;;;;;;;;;5092004;28;20535;-73
2021/12/16 06:07:40;;;;;;;18.13;12.03;;;;;;;;;;5092180;28;20933;-74
2021/12/16 06:10:09;;;;;;;18.57;10.93;;;;;;;;;;5091341;28;20449;-74
2021/12/16 06:12:36;;;;;;;20.03;12.13;;;;;;;;;;5091733;28;20567;-73
2021/12/16 06:15:17;;;;;;;16.67;10.50;;;;;;;;;;5091201;28;20626;-73
2021/12/16 06:28:47;;;;;;;16.93;10.27;;;;;;;;;;5083481;28;20445;-73
2021/12/16 06:31:14;;;;;;;18.10;11.43;;;;;;;;;;5090449;28;20537;-74
2021/12/16 06:33:41;;;;;;;21.77;12.47;;;;;;;;;;5089993;28;20583;-73
2021/12/16 06:36:10;;;;;;;21.03;11.87;;;;;;;;;;5086244;28;20453;-73
2021/12/16 06:38:37;;;;;;;21.50;13.40;;;;;;;;;;5088162;28;20449;-74
2021/12/16 06:41:05;;;;;;;20.87;10.90;;;;;;;;;;5089838;28;20452;-73
2021/12/16 06:43:33;;;;;;;18.27;11.40;;;;;;;;;;5089230;28;20454;-72
2021/12/16 06:46:03;;;;;;;15.30;10.47;;;;;;;;;;5088924;28;21062;-73
2021/12/16 06:48:34;;;;;;;18.23;11.40;;;;;;;;;;5088437;28;20467;-73
2021/12/16 06:51:05;;;;;;;17.73;10.13;;;;;;;;;;5088334;28;20959;-73
2021/12/16 06:53:46;;;;;;;16.73;10.20;;;;;;;;;;5090861;28;20476;-73
2021/12/16 06:56:18;;;;;;;19.47;9.87;;;;;;;;;;5073180;28;20980;-71
2021/12/16 06:58:49;;;;;;;18.00;11.20;;;;;;;;;;5085441;28;20449;-72
2021/12/16 07:01:30;;;;;;;19.07;11.13;;;;;;;;;;5089552;28;20735;-73
2021/12/16 07:03:57;;;;;;;18.30;11.07;;;;;;;;;;5082123;28;20903;-72
2021/12/16 07:06:27;;;;;;;24.17;11.53;;;;;;;;;;5090729;28;20524;-75
2021/12/16 07:08:57;;;;;;;19.93;11.70;;;;;;;;;;5090641;28;20436;-74
2021/12/16 07:11:25;;;;;;;21.40;12.17;;;;;;;;;;5090916;28;20444;-74
2021/12/16 07:13:58;;;;;;;18.93;11.70;;;;;;;;;;5085047;28;20477;-74
2021/12/16 07:16:26;;;;;;;18.40;9.97;;;;;;;;;;5090416;28;20986;-75
2021/12/16 07:18:54;;;;;;;16.57;9.97;;;;;;;;;;5090424;28;20524;-74
2021/12/16 07:21:21;;;;;;;18.70;10.13;;;;;;;;;;5090165;28;20444;-74
2021/12/16 07:23:48;;;;;;;17.73;10.53;;;;;;;;;;5089718;28;20455;-74
2021/12/16 07:26:16;;;;;;;16.77;11.80;;;;;;;;;;5086804;28;20447;-74
2021/12/16 07:28:44;;;;;;;17.10;9.57;;;;;;;;;;5086985;28;20449;-74
2021/12/16 07:31:11;;;;;;;20.90;10.83;;;;;;;;;;5089463;28;20583;-74
2021/12/16 07:33:38;;;;;;;16.97;10.20;;;;;;;;;;5089567;28;20484;-73
2021/12/16 07:36:05;;;;;;;23.53;12.20;;;;;;;;;;5089416;28;20441;-74
2021/12/16 07:38:32;;;;;;;15.57;9.60;;;;;;;;;;5089687;28;20527;-74
2021/12/16 07:41:00;;;;;;;19.50;11.37;;;;;;;;;;5090146;28;20451;-74
2021/12/16 07:43:53;;;;;;;19.13;10.33;;;;;;;;;;5090709;28;20491;-74
2021/12/16 07:46:20;;;;;;;21.07;11.03;;;;;;;;;;5089005;28;20462;-73
2021/12/16 07:48:47;;;;;;;20.60;11.20;;;;;;;;;;5090236;28;20452;-74
2021/12/16 07:51:15;;;;;;;17.83;10.43;;;;;;;;;;5089331;28;20535;-73
2021/12/16 07:53:42;;;;;;;22.83;11.40;;;;;;;;;;5090399;28;20480;-74
2021/12/16 07:56:09;;;;;;;22.23;12.20;;;;;;;;;;5089226;28;20452;-73
2021/12/16 07:58:38;;;;;;;25.80;14.40;;;;;;;;;;5088574;28;20454;-73
2021/12/16 08:01:05;;;;;;;16.77;10.23;;;;;;;;;;5084965;28;20455;-74
2021/12/16 08:03:36;;;;;;;19.67;11.50;;;;;;;;;;5089500;28;20451;-74
2021/12/16 08:06:05;;;;;;;21.43;10.70;;;;;;;;;;5075214;28;20949;-74
2021/12/16 08:08:33;;;;;;;19.00;10.83;;;;;;;;;;5084602;28;20476;-73
2021/12/16 08:11:01;;;;;;;15.33;10.17;;;;;;;;;;5077904;28;20873;-73
2021/12/16 08:13:28;;;;;;;18.33;11.60;;;;;;;;;;5089867;28;20484;-73
2021/12/16 08:15:57;;;;;;;19.60;9.93;;;;;;;;;;5090192;28;20449;-74
2021/12/16 08:18:24;;;;;;;17.30;10.90;;;;;;;;;;5091682;28;20444;-74
2021/12/16 08:20:51;;;;;;;18.23;10.40;;;;;;;;;;5094340;28;20440;-74
2021/12/16 08:23:18;;;;;;;19.33;10.90;;;;;;;;;;5093789;28;20482;-74
2021/12/16 08:25:46;;;;;;;14.13;10.00;;;;;;;;;;5092951;28;20964;-73
2021/12/16 08:28:13;;;;;;;19.27;11.23;;;;;;;;;;5090961;28;20455;-73
2021/12/16 08:30:41;;;;;;;15.83;10.23;;;;;;;;;;5091916;28;20440;-74
2021/12/16 08:33:12;;;;;;;18.23;9.90;;;;;;;;;;5092218;28;20831;-73
2021/12/16 08:35:40;;;;;;;19.00;11.97;;;;;;;;;;5093424;28;20535;-74
2021/12/16 08:38:07;;;;;;;17.20;10.70;;;;;;;;;;5087767;28;20536;-75
2021/12/16 08:40:35;;;;;;;20.50;11.47;;;;;;;;;;5080129;28;20552;-73
2021/12/16 08:43:02;;;;;;;18.53;10.60;;;;;;;;;;5077548;28;20960;-73
2021/12/16 08:45:31;;;;;;;13.47;8.50;;;;;;;;;;5087974;28;20791;-73
2021/12/16 08:47:59;;;;;;;15.80;10.23;;;;;;;;;;5089202;28;20958;-74
2021/12/16 08:50:29;;;;;;;16.80;9.70;;;;;;;;;;5091848;28;20839;-72
2021/12/16 08:52:58;;;;;;;16.77;9.77;;;;;;;;;;5089135;28;20998;-69
2021/12/16 08:55:25;;;;;;;16.70;11.27;;;;;;;;;;5086632;28;20448;-73
2021/12/16 08:57:55;;;;;;;20.37;10.10;;;;;;;;;;5090643;28;20448;-74
2021/12/16 09:00:24;;;;;;;18.00;11.20;;;;;;;;;;5090310;28;20451;-74
2021/12/16 09:02:52;;;;;;;16.60;9.67;;;;;;;;;;5091840;28;20543;-74
2021/12/16 09:05:20;;;;;;;18.40;9.90;;;;;;;;;;5092161;28;20603;-74
2021/12/16 09:07:48;;;;;;;16.00;10.03;;;;;;;;;;5092256;28;20458;-72
2021/12/16 09:10:20;;;;;;;15.97;9.80;;;;;;;;;;5092395;28;20449;-74
2021/12/16 09:12:54;;;;;;;14.40;9.50;;;;;;;;;;5092948;28;20563;-73
2021/12/16 09:15:24;;;;;;;14.20;8.37;;;;;;;;;;5092930;28;20531;-71
2021/12/16 09:17:51;;;;;;;18.13;10.60;;;;;;;;;;5085301;28;20453;-70
2021/12/16 09:20:19;;;;;;;15.33;8.90;;;;;;;;;;5092436;28;20456;-71
2021/12/16 09:22:46;;;;;;;17.97;9.80;;;;;;;;;;5091887;28;21055;-70
2021/12/16 09:25:15;;;;;;;17.50;10.30;;;;;;;;;;5081955;28;20459;-70
2021/12/16 09:27:43;;;;;;;16.40;8.70;;;;;;;;;;5082673;28;20543;-70
2021/12/16 09:30:12;;;;;;;16.83;9.87;;;;;;;;;;5082028;28;20451;-70
2021/12/16 09:32:39;;;;;;;17.97;10.07;;;;;;;;;;5084579;28;20496;-69
2021/12/16 09:35:07;;;;;;;15.10;9.80;;;;;;;;;;5084578;28;20524;-70
2021/12/16 09:37:35;;;;;;;16.33;9.00;;;;;;;;;;5083525;28;20455;-70
2021/12/16 09:40:02;;;;;;;13.43;9.10;;;;;;;;;;5083872;28;20491;-70
2021/12/16 09:42:31;;;;;;;15.40;11.17;;;;;;;;;;5082463;28;20527;-70
2021/12/16 09:44:58;;;;;;;15.60;10.90;;;;;;;;;;5086259;28;20532;-70
2021/12/16 09:47:27;;;;;;;14.13;8.93;;;;;;;;;;5090564;28;20806;-70
2021/12/16 09:49:54;;;;;;;13.73;8.30;;;;;;;;;;5092368;28;20441;-70
2021/12/16 09:52:22;;;;;;;12.67;7.73;;;;;;;;;;5092280;28;20840;-70
2021/12/16 09:54:49;;;;;;;13.73;9.27;;;;;;;;;;5092834;28;20491;-70
2021/12/16 09:57:17;;;;;;;13.30;8.63;;;;;;;;;;5090580;28;20898;-70
2021/12/16 09:59:46;;;;;;;14.37;7.87;;;;;;;;;;5092601;28;20800;-70
2021/12/16 10:02:16;;;;;;;13.07;8.63;;;;;;;;;;5090068;28;20543;-71
2021/12/16 10:04:43;;;;;;;14.50;8.83;;;;;;;;;;5092650;28;20459;-70
2021/12/16 10:07:13;;;;;;;15.57;9.90;;;;;;;;;;5089279;28;20539;-70
2021/12/16 10:09:40;;;;;;;14.03;9.73;;;;;;;;;;5091948;28;20448;-70
2021/12/16 10:12:12;;;;;;;15.50;9.53;;;;;;;;;;5091062;28;20536;-71
2021/12/16 10:15:01;;;;;;;15.70;8.93;;;;;;;;;;5084453;28;20465;-71
2021/12/16 10:17:32;;;;;;;15.87;10.00;;;;;;;;;;5088811;28;20916;-70
2021/12/16 10:20:00;;;;;;;15.70;9.20;;;;;;;;;;5091425;28;20444;-70
2021/12/16 10:22:32;;;;;;;17.70;9.77;;;;;;;;;;5091217;28;20451;-70
2021/12/16 10:25:16;;;;;;;15.97;10.07;;;;;;;;;;5091660;28;20551;-70
2021/12/16 10:27:53;;;;;;;15.50;9.30;;;;;;;;;;5090921;28;20449;-70
2021/12/16 10:30:20;;;;;;;15.43;9.43;;;;;;;;;;5088534;28;20448;-70
2021/12/16 10:32:50;;;;;;;14.40;8.23;;;;;;;;;;5090134;28;20567;-70
2021/12/16 10:35:27;;;;;;;14.20;9.10;;;;;;;;;;5090594;28;20536;-70
2021/12/16 10:37:56;;;;;;;18.43;9.90;;;;;;;;;;5090742;28;20481;-70
2021/12/16 10:40:24;;;;;;;14.20;8.60;;;;;;;;;;5089454;28;20449;-70
2021/12/16 10:42:51;;;;;;;14.10;9.70;;;;;;;;;;5090091;28;20475;-70
2021/12/16 10:45:30;;;;;;;13.73;8.13;;;;;;;;;;5086990;28;20555;-70
2021/12/16 10:48:18;;;;;;;15.93;9.07;;;;;;;;;;5082376;28;20449;-69
2021/12/16 10:50:54;;;;;;;22.43;10.90;;;;;;;;;;5081719;28;20471;-70
2021/12/16 10:53:40;;;;;;;18.03;9.90;;;;;;;;;;5087131;28;20476;-70
2021/12/16 10:56:08;;;;;;;12.70;9.07;;;;;;;;;;5086096;28;20453;-70
2021/12/16 10:58:56;;;;;;;16.03;10.37;;;;;;;;;;5088064;28;20821;-70
2021/12/16 11:01:41;;;;;;;15.13;10.07;;;;;;;;;;5074323;28;20467;-70
2021/12/16 11:04:11;;;;;;;15.33;9.70;;;;;;;;;;5079998;28;20455;-70
2021/12/16 11:06:41;;;;;;;17.13;9.20;;;;;;;;;;5080212;28;20444;-70
2021/12/16 11:09:25;;;;;;;15.60;10.20;;;;;;;;;;5079739;28;20454;-70
2021/12/16 11:12:05;;;;;;;15.43;10.53;;;;;;;;;;5086307;28;20448;-70
2021/12/16 11:14:32;;;;;;;14.70;8.60;;;;;;;;;;5088019;28;20566;-70
2021/12/16 11:17:00;;;;;;;12.77;8.53;;;;;;;;;;5080391;28;20489;-69
2021/12/16 11:19:41;;;;;;;17.33;10.57;;;;;;;;;;5081766;28;20527;-70
2021/12/16 11:22:10;;;;;;;16.80;9.43;;;;;;;;;;5083102;28;20491;-70
2021/12/16 11:24:38;;;;;;;16.73;10.17;;;;;;;;;;5083210;28;20463;-69
2021/12/16 11:27:20;;;;;;;14.93;10.10;;;;;;;;;;5079238;28;20547;-70
2021/12/16 11:29:47;;;;;;;20.70;10.10;;;;;;;;;;5083341;28;21035;-70
2021/12/16 11:32:29;;;;;;;15.03;9.47;;;;;;;;;;5082418;28;21034;-70
2021/12/16 11:34:56;;;;;;;16.30;10.40;;;;;;;;;;5079737;28;20484;-70
2021/12/16 11:37:25;;;;;;;16.07;10.23;;;;;;;;;;5082046;28;20457;-72
2021/12/16 11:39:52;;;;;;;18.50;8.63;;;;;;;;;;5086805;28;20455;-72
2021/12/16 11:42:27;;;;;;;19.13;10.33;;;;;;;;;;5086448;28;20552;-72
2021/12/16 11:44:56;;;;;;;19.33;10.07;;;;;;;;;;5089776;28;20447;-73
2021/12/16 11:47:25;;;;;;;17.67;9.57;;;;;;;;;;5084716;28;20959;-73
2021/12/16 11:49:54;;;;;;;15.23;9.80;;;;;;;;;;5082220;28;20460;-73
2021/12/16 11:52:22;;;;;;;19.17;10.83;;;;;;;;;;5085211;28;20445;-74
2021/12/16 11:54:53;;;;;;;18.10;10.43;;;;;;;;;;5093569;28;20483;-72
2021/12/16 11:57:24;;;;;;;20.97;11.20;;;;;;;;;;5084530;28;20445;-72
2021/12/16 11:59:54;;;;;;;19.03;10.50;;;;;;;;;;5093165;28;20823;-70
2021/12/16 12:02:26;;;;;;;19.07;10.13;;;;;;;;;;5090086;28;20452;-69
2021/12/16 12:04:53;;;;;;;18.67;11.20;;;;;;;;;;5089327;28;20459;-69
2021/12/16 12:07:20;;;;;;;21.73;13.33;;;;;;;;;;5089602;28;20448;-69
2021/12/16 12:09:49;;;;;;;17.37;9.60;;;;;;;;;;5091134;28;20449;-69
2021/12/16 12:12:18;;;;;;;17.73;10.20;;;;;;;;;;5085688;28;20798;-69
2021/12/16 12:14:46;;;;;;;18.20;10.80;;;;;;;;;;5091119;28;20480;-70
2021/12/16 12:17:19;;;;;;;20.97;9.93;;;;;;;;;;5085309;28;20531;-69
2021/12/16 12:19:47;;;;;;;18.37;10.83;;;;;;;;;;5088890;28;20448;-69
2021/12/16 12:22:14;;;;;;;18.87;9.37;;;;;;;;;;5086172;28;20517;-71
2021/12/16 12:24:45;;;;;;;19.10;11.83;;;;;;;;;;5091435;28;20483;-69
2021/12/16 12:27:13;;;;;;;18.53;10.80;;;;;;;;;;5090913;28;20444;-69
2021/12/16 12:29:43;;;;;;;19.40;11.50;;;;;;;;;;5087537;28;20444;-69
2021/12/16 12:32:11;;;;;;;23.67;11.33;;;;;;;;;;5081985;28;20484;-69
2021/12/16 12:34:39;;;;;;;17.20;9.90;;;;;;;;;;5085252;28;20486;-70
2021/12/16 12:37:08;;;;;;;16.70;9.53;;;;;;;;;;5082075;28;20449;-69
2021/12/16 12:39:38;;;;;;;13.60;9.50;;;;;;;;;;5086093;28;20472;-69
2021/12/16 12:42:06;;;;;;;22.50;11.30;;;;;;;;;;5082428;28;20468;-69
2021/12/16 12:44:33;;;;;;;18.90;9.90;;;;;;;;;;5084553;28;20971;-69
2021/12/16 12:47:02;;;;;;;17.20;9.40;;;;;;;;;;5080162;28;20449;-69
2021/12/16 12:49:30;;;;;;;21.10;11.60;;;;;;;;;;5080827;28;20940;-70
2021/12/16 12:52:10;;;;;;;18.20;10.33;;;;;;;;;;5089832;28;20448;-69
2021/12/16 12:54:38;;;;;;;18.83;10.80;;;;;;;;;;5089316;28;20503;-69
2021/12/16 12:57:20;;;;;;;16.33;10.53;;;;;;;;;;5087135;28;20555;-69
2021/12/16 12:59:47;;;;;;;17.83;11.90;;;;;;;;;;5087991;28;20454;-69
2021/12/16 13:02:17;;;;;;;18.03;9.97;;;;;;;;;;5090117;28;20453;-69
2021/12/16 13:04:47;;;;;;;17.80;10.00;;;;;;;;;;5092270;28;20448;-70
2021/12/16 13:07:14;;;;;;;17.30;10.03;;;;;;;;;;5087472;28;20449;-69
2021/12/16 13:09:43;;;;;;;15.70;9.73;;;;;;;;;;5092450;28;20548;-69
2021/12/16 13:12:35;;;;;;;17.87;10.07;;;;;;;;;;5091212;28;20527;-69
2021/12/16 13:15:11;;;;;;;15.27;9.80;;;;;;;;;;5090798;28;20555;-69
2021/12/16 13:23:32;;;;;;;15.60;10.20;;;;;;;;;;5091315;28;20506;-68
2021/12/16 13:29:09;;;;;;;16.73;10.00;;;;;;;;;;5089626;28;20426;-69
2021/12/16 13:31:48;;;;;;;17.70;10.90;;;;;;;;;;5092288;28;20827;-68
2021/12/16 13:34:37;;;;;;;16.30;10.20;;;;;;;;;;5085908;28;20522;-68
2021/12/16 13:37:11;;;;;;;17.00;10.73;;;;;;;;;;5090569;28;20475;-68
2021/12/16 13:39:43;;;;;;;16.63;9.80;;;;;;;;;;5090609;28;20811;-68
2021/12/16 13:42:14;;;;;;;17.80;10.07;;;;;;;;;;5089882;28;20443;-68
2021/12/16 13:44:45;;;;;;;18.83;11.27;;;;;;;;;;5092289;28;20440;-69
2021/12/16 13:47:26;;;;;;;20.77;10.93;;;;;;;;;;5088956;28;21005;-68
2021/12/16 14:02:12;;;;;;;18.07;10.50;;;;;;;;;;4999296;28;20441;-68
2021/12/16 14:04:55;;;;;;;18.50;11.00;;;;;;;;;;5000592;28;20533;-69
2021/12/16 14:07:53;;;;;;;16.17;8.90;;;;;;;;;;5058156;28;20437;-69
2021/12/16 14:10:28;;;;;;;17.47;10.30;;;;;;;;;;5074888;28;20437;-68
2021/12/16 14:16:15;;;;;;;17.87;9.90;;;;;;;;;;5080044;28;20593;-68
2021/12/16 14:24:57;;;;;;;17.97;9.60;;;;;;;;;;5089200;28;20832;-69
2021/12/16 14:36:02;;;;;;;14.70;9.90;;;;;;;;;;5077365;28;20497;-69
2021/12/16 14:38:54;;;;;;;16.50;9.53;;;;;;;;;;5087126;28;20880;-69
2021/12/16 14:41:40;;;;;;;15.73;9.70;;;;;;;;;;5091258;28;20468;-69
2021/12/16 14:45:09;;;;;;;14.63;9.57;;;;;;;;;;5087983;28;20452;-68
2021/12/16 14:47:14;;;;;;;15.93;9.10;;;;;;;;;;5086342;28;20444;-69
2021/12/16 14:49:43;;;;;;;14.10;9.80;;;;;;;;;;5086500;28;20449;-69
2021/12/16 14:52:14;;;;;;;14.57;9.07;;;;;;;;;;5086621;28;20449;-69
2021/12/16 14:54:47;;;;;;;14.30;8.90;;;;;;;;;;5086364;28;20477;-69
2021/12/16 14:57:14;;;;;;;13.47;8.53;;;;;;;;;;5083027;28;20793;-69
2021/12/16 14:59:41;;;;;;;15.30;9.10;;;;;;;;;;5087875;28;20471;-69
2021/12/16 15:02:11;;;;;;;17.53;8.07;;;;;;;;;;5085427;28;20543;-69
2021/12/16 15:04:38;;;;;;;16.23;10.67;;;;;;;;;;5081082;28;20468;-68
2021/12/16 15:07:06;;;;;;;16.60;9.63;;;;;;;;;;5085830;28;21015;-69
2021/12/16 15:09:37;;;;;;;14.57;9.53;;;;;;;;;;5090876;28;20444;-68
2021/12/16 15:12:10;;;;;;;13.90;9.30;;;;;;;;;;5089012;28;20445;-68
2021/12/16 15:14:53;;;;;;;13.37;9.70;;;;;;;;;;5090317;28;20468;-68
2021/12/16 15:17:43;;;;;;;12.50;8.97;;;;;;;;;;5088037;28;20449;-69
2021/12/16 15:36:54;;;;;;;19.47;11.50;;;;;;;;;;5073452;28;20428;-69
2021/12/16 15:39:41;;;;;;;15.80;10.30;;;;;;;;;;5089061;28;20967;-69
2021/12/16 15:44:56;;;;;;;14.13;8.70;;;;;;;;;;5075405;28;20897;-68
2021/12/16 15:47:24;;;;;;;17.70;10.70;;;;;;;;;;5084534;28;20448;-68
2021/12/16 15:49:53;;;;;;;14.33;9.00;;;;;;;;;;5090481;28;20447;-68
2021/12/16 15:52:20;;;;;;;15.10;10.43;;;;;;;;;;5081882;28;20474;-71
2021/12/16 15:54:51;;;;;;;15.23;9.50;;;;;;;;;;5088738;28;20484;-69
2021/12/16 15:57:21;;;;;;;17.80;10.93;;;;;;;;;;5086860;28;20914;-68
2021/12/16 16:02:50;;;;;;;16.83;11.10;;;;;;;;;;5113012;27;20534;-68
2021/12/16 16:05:17;;;;;;;15.97;9.60;;;;;;;;;;5098341;28;20873;-69
2021/12/16 16:07:44;;;;;;;13.10;9.40;;;;;;;;;;5093689;28;20954;-70
2021/12/16 16:10:15;;;;;;;17.77;9.80;;;;;;;;;;5101128;28;20440;-70
2021/12/16 16:12:42;;;;;;;16.37;9.60;;;;;;;;;;5098282;28;20929;-68
2021/12/16 16:15:16;;;;;;;13.57;9.20;;;;;;;;;;5092269;28;20860;-70
2021/12/16 16:17:53;;;;;;;19.87;10.47;;;;;;;;;;5089898;28;20444;-70
2021/12/16 16:20:22;;;;;;;19.40;10.43;;;;;;;;;;5099119;28;20452;-70
2021/12/16 16:22:49;;;;;;;18.47;11.60;;;;;;;;;;5095032;28;20773;-71
2021/12/16 16:25:17;;;;;;;17.87;10.10;;;;;;;;;;5104443;28;20444;-68
2021/12/16 16:27:44;;;;;;;18.57;9.90;;;;;;;;;;5102438;28;20973;-68
2021/12/16 16:30:12;;;;;;;18.33;10.20;;;;;;;;;;5091735;28;22175;-70
2021/12/16 16:32:58;;;;;;;17.00;10.70;;;;;;;;;;5094433;28;20451;-71
2021/12/16 16:35:26;;;;;;;18.13;10.43;;;;;;;;;;5094225;28;20944;-70
2021/12/16 16:37:53;;;;;;;14.07;10.30;;;;;;;;;;5092839;28;20439;-70
2021/12/16 16:40:21;;;;;;;16.60;10.70;;;;;;;;;;5100355;28;20454;-70
2021/12/16 16:42:48;;;;;;;15.47;9.63;;;;;;;;;;5094343;28;20999;-70
2021/12/16 16:45:19;;;;;;;19.67;11.17;;;;;;;;;;5086705;28;20456;-70
2021/12/16 16:47:52;;;;;;;15.30;11.17;;;;;;;;;;5098605;28;20850;-70
2021/12/16 16:50:20;;;;;;;14.93;10.83;;;;;;;;;;5087931;28;20813;-70
2021/12/16 16:52:50;;;;;;;16.60;10.17;;;;;;;;;;5088538;28;20466;-70
2021/12/16 16:55:19;;;;;;;18.60;11.37;;;;;;;;;;5086342;28;20449;-71
2021/12/16 16:57:47;;;;;;;15.13;10.10;;;;;;;;;;5095653;28;20449;-70
2021/12/16 17:00:17;;;;;;;16.37;10.77;;;;;;;;;;5087390;28;20465;-70
2021/12/16 17:02:46;;;;;;;19.00;12.00;;;;;;;;;;5093646;28;20558;-70
2021/12/16 17:05:15;;;;;;;16.13;10.43;;;;;;;;;;5098538;28;20448;-70
2021/12/16 17:07:44;;;;;;;15.30;10.20;;;;;;;;;;5105578;28;20482;-70
2021/12/16 17:10:27;;;;;;;17.70;10.00;;;;;;;;;;5097954;28;20506;-70
2021/12/16 17:13:01;;;;;;;17.83;11.53;;;;;;;;;;5091035;28;20949;-70
2021/12/16 17:15:35;;;;;;;13.20;9.00;;;;;;;;;;5086676;28;20445;-70
2021/12/16 17:18:02;;;;;;;18.80;11.10;;;;;;;;;;5081246;28;20441;-71
2021/12/16 17:20:29;;;;;;;17.53;10.13;;;;;;;;;;5081211;28;20975;-72
2021/12/16 17:23:00;;;;;;;18.77;11.20;;;;;;;;;;5084838;28;20839;-71
2021/12/16 17:25:31;;;;;;;16.60;10.60;;;;;;;;;;5075620;28;20453;-70
2021/12/16 17:28:01;;;;;;;15.60;10.30;;;;;;;;;;5075010;28;20442;-70
2021/12/16 17:30:32;;;;;;;14.70;9.93;;;;;;;;;;5086027;28;20449;-70
2021/12/16 17:32:59;;;;;;;17.43;11.47;;;;;;;;;;5074753;28;20945;-70
2021/12/16 17:35:28;;;;;;;15.73;10.50;;;;;;;;;;5084504;28;20444;-70